Weather reports worldwide

Advertisment
Karlsruhe/Baden-Baden, Germany (10722): temperature & dewpoint: 07.12.2019 06:00:00 - 13.12.2019 06:00:00 (CET)Karlsruhe/Baden-Baden, Germany (10722): wind speed: 07.12.2019 06:00:00 - 13.12.2019 06:00:00 (CET)Karlsruhe/Baden-Baden, Germany (10722): wind direction: 07.12.2019 06:00:00 - 13.12.2019 06:00:00 (CET)Karlsruhe/Baden-Baden, Germany (10722): visibility: 07.12.2019 06:00:00 - 13.12.2019 06:00:00 (CET)
Date & Time tt [°C] td [°C] ff [km/h] ff [kn] dd vv [km]
13.12.2019 06:00:00 6,0 4,0 22 12 S 10
13.12.2019 05:00:00 3,0 3,0 11 6 SSW 10
13.12.2019 04:00:00 2,0 2,0 4 2 - 10
13.12.2019 03:00:00 1,0 0,0 5 3 NE 9
13.12.2019 02:00:00 1,0 0,0 4 2 - 10
13.12.2019 01:00:00 0,0 0,0 9 5 SW 10
13.12.2019 00:00:00 0,0 0,0 4 2 - 10
12.12.2019 23:00:00 0,0 -1,0 4 2 - 10
12.12.2019 22:00:00 -1,0 -1,0 4 2 - 10
12.12.2019 21:00:00 0,0 -1,0 5 3 ENE 10
12.12.2019 20:00:00 3,0 -1,0 8 4 S 10
12.12.2019 19:00:00 3,0 -1,0 9 5 SSE 10
12.12.2019 18:00:00 2,0 0,0 13 7 S 10
12.12.2019 17:00:00 4,0 1,0 21 11 SSW 10
12.12.2019 16:00:00 5,0 3,0 11 6 SSW 10
12.12.2019 15:00:00 5,0 3,0 18 10 SSW 10
12.12.2019 14:00:00 4,0 3,0 16 9 SSW 7
12.12.2019 13:00:00 4,0 3,0 9 5 WSW 10
12.12.2019 12:00:00 5,0 3,0 16 9 SSW 10
12.12.2019 11:00:00 4,0 3,0 11 6 SW 10
12.12.2019 10:00:00 4,0 3,0 21 11 SSW 10
12.12.2019 09:00:00 4,0 3,0 22 12 SSW 10
12.12.2019 08:00:00 4,0 3,0 15 8 SSW 10
12.12.2019 07:00:00 4,0 3,0 15 8 SSW 10
12.12.2019 06:00:00 4,0 3,0 11 6 SSW 10
12.12.2019 05:00:00 4,0 3,0 8 4 SW 10
12.12.2019 04:00:00 4,0 3,0 11 6 SW 10
12.12.2019 03:00:00 4,0 3,0 11 6 SW 10
12.12.2019 02:00:00 4,0 3,0 13 7 SSW 10
12.12.2019 01:00:00 4,0 3,0 13 7 SSW 10
12.12.2019 00:00:00 - - - - - -
11.12.2019 23:00:00 4,0 3,0 16 9 SSW 10
11.12.2019 22:00:00 4,0 3,0 21 11 SSW 10
11.12.2019 21:00:00 4,0 3,0 26 14 SSW 10
11.12.2019 20:00:00 4,0 3,0 24 13 SSW 7
11.12.2019 19:00:00 4,0 3,0 21 11 SSW 7
11.12.2019 18:00:00 3,0 2,0 18 10 SW 6
11.12.2019 17:00:00 2,0 2,0 9 5 SW 6
11.12.2019 16:00:00 2,0 2,0 5 3 SSE 7
11.12.2019 15:00:00 3,0 2,0 2 1 - 10
11.12.2019 14:00:00 3,0 0,0 4 2 - 10
11.12.2019 13:00:00 2,0 1,0 5 3 NNW 10
11.12.2019 12:00:00 2,0 0,0 5 3 ESE 10
11.12.2019 11:00:00 1,0 -1,0 2 1 - 10
11.12.2019 10:00:00 1,0 -1,0 4 2 - 10
11.12.2019 09:00:00 0,0 -1,0 4 2 - 10
11.12.2019 08:00:00 0,0 -2,0 5 3 S 10
11.12.2019 07:00:00 -1,0 -2,0 5 3 S 10
11.12.2019 06:00:00 -1,0 -2,0 8 4 SE 10
11.12.2019 05:00:00 -2,0 -3,0 4 2 - 10
11.12.2019 04:00:00 -3,0 -3,0 8 4 SE 10
11.12.2019 03:00:00 -2,0 -3,0 2 1 - 10
11.12.2019 02:00:00 -2,0 -3,0 4 2 - 10
11.12.2019 01:00:00 -3,0 -4,0 5 3 ENE 10
11.12.2019 00:00:00 -2,0 -3,0 0 0 N 10
10.12.2019 23:00:00 -2,0 -3,0 2 1 - 10
10.12.2019 22:00:00 -2,0 -2,0 4 2 SSW 10
10.12.2019 21:00:00 -2,0 -2,0 0 0 N 10
10.12.2019 20:00:00 -1,0 -2,0 0 0 N 10
10.12.2019 19:00:00 0,0 -1,0 2 1 SSE 10
10.12.2019 18:00:00 2,0 -1,0 2 1 - 10
10.12.2019 17:00:00 3,0 0,0 5 3 S 10
10.12.2019 16:00:00 5,0 1,0 9 5 SSW 10
10.12.2019 15:00:00 6,0 2,0 11 6 S 10
10.12.2019 14:00:00 6,0 1,0 11 6 SSW 10
10.12.2019 13:00:00 6,0 2,0 11 6 S 10
10.12.2019 12:00:00 5,0 2,0 11 6 SW 10
10.12.2019 11:00:00 4,0 2,0 13 7 SW 10
10.12.2019 10:00:00 2,0 1,0 11 6 SSW 10
10.12.2019 09:00:00 1,0 0,0 9 5 SSW 10
10.12.2019 08:00:00 2,0 1,0 9 5 S 10
10.12.2019 07:00:00 3,0 1,0 11 6 WNW 10
10.12.2019 06:00:00 4,0 2,0 8 4 W 10
10.12.2019 05:00:00 4,0 1,0 9 5 W 10
10.12.2019 04:00:00 4,0 1,0 8 4 WSW 10
10.12.2019 03:00:00 5,0 1,0 8 4 W 10
10.12.2019 02:00:00 5,0 2,0 4 2 - 10
10.12.2019 01:00:00 6,0 2,0 9 5 NW 10
10.12.2019 00:00:00 7,0 3,0 11 6 NW 10
09.12.2019 23:00:00 7,0 4,0 13 7 NW 10
09.12.2019 22:00:00 6,0 5,0 8 4 WNW 10
09.12.2019 21:00:00 6,0 5,0 11 6 WSW 10
09.12.2019 20:00:00 7,0 5,0 13 7 WSW 10
09.12.2019 19:00:00 7,0 5,0 13 7 SSW 10
09.12.2019 18:00:00 7,0 5,0 13 7 SW 10
09.12.2019 17:00:00 7,0 5,0 13 7 WSW 9
09.12.2019 16:00:00 7,0 6,0 15 8 WSW 5
09.12.2019 15:00:00 7,0 6,0 21 11 SSW 10
09.12.2019 14:00:00 7,0 6,0 26 14 SSW 10
09.12.2019 13:00:00 8,0 5,0 35 19 SSW 10
09.12.2019 12:00:00 8,0 5,0 35 19 SSW 10
09.12.2019 11:00:00 8,0 4,0 37 20 SSW 10
09.12.2019 10:00:00 8,0 5,0 35 19 SSW 10
09.12.2019 09:00:00 8,0 4,0 31 17 SSW 10
09.12.2019 08:00:00 8,0 4,0 37 20 SSW 10
09.12.2019 07:00:00 8,0 5,0 31 17 SSW 10
09.12.2019 06:00:00 8,0 5,0 22 12 SSW 10
09.12.2019 05:00:00 8,0 4,0 28 15 SSW 10
09.12.2019 04:00:00 9,0 5,0 22 12 SW 10
09.12.2019 03:00:00 8,0 5,0 22 12 SSW 10
09.12.2019 02:00:00 8,0 4,0 24 13 SSW 10
09.12.2019 01:00:00 7,0 4,0 22 12 SSW 10
09.12.2019 00:00:00 8,0 5,0 18 10 SW 10
08.12.2019 23:00:00 9,0 5,0 24 13 WSW 10
08.12.2019 22:00:00 9,0 7,0 24 13 WSW 9
08.12.2019 21:00:00 10,0 9,0 35 19 SSW 8
08.12.2019 20:00:00 12,0 8,0 39 21 SSW 10
08.12.2019 19:00:00 11,0 8,0 37 20 SSW 10
08.12.2019 18:00:00 11,0 8,0 37 20 SSW 9
08.12.2019 17:00:00 11,0 8,0 35 19 SSW 10
08.12.2019 16:00:00 11,0 8,0 34 18 SSW 10
08.12.2019 15:00:00 11,0 8,0 29 16 SSW 10
08.12.2019 14:00:00 12,0 6,0 35 19 SSW 10
08.12.2019 13:00:00 12,0 7,0 31 17 SSW 10
08.12.2019 12:00:00 11,0 6,0 35 19 SSW 10
08.12.2019 11:00:00 11,0 6,0 31 17 SSW 10
08.12.2019 10:00:00 10,0 5,0 31 17 SSW 10
08.12.2019 09:00:00 9,0 6,0 31 17 SSW 10
08.12.2019 08:00:00 9,0 6,0 34 18 SSW 10
08.12.2019 07:00:00 9,0 6,0 28 15 SSW 10
08.12.2019 06:00:00 9,0 6,0 22 12 SSW 10
08.12.2019 05:00:00 9,0 7,0 21 11 SW 10
08.12.2019 04:00:00 8,0 6,0 24 13 SSW 10
08.12.2019 03:00:00 8,0 7,0 18 10 SW 10
08.12.2019 02:00:00 8,0 7,0 21 11 SSW 10
08.12.2019 01:00:00 8,0 7,0 22 12 SSW 10
08.12.2019 00:00:00 8,0 7,0 21 11 SSW 10
07.12.2019 23:00:00 8,0 7,0 15 8 SW 10
07.12.2019 22:00:00 8,0 7,0 13 7 SW 9
07.12.2019 21:00:00 8,0 7,0 18 10 SSW 9
07.12.2019 20:00:00 8,0 7,0 21 11 S 10
07.12.2019 19:00:00 8,0 7,0 13 7 SW 10
07.12.2019 18:00:00 9,0 7,0 18 10 SSW 7
07.12.2019 17:00:00 8,0 7,0 15 8 SSW 10
07.12.2019 16:00:00 9,0 7,0 15 8 SW 10
07.12.2019 15:00:00 9,0 8,0 16 9 SSW 10
07.12.2019 14:00:00 9,0 8,0 22 12 SSW 10
07.12.2019 13:00:00 9,0 8,0 24 13 SSW 10
07.12.2019 12:00:00 9,0 8,0 22 12 SSW 10
07.12.2019 11:00:00 9,0 8,0 18 10 SSW 10
07.12.2019 10:00:00 8,0 7,0 18 10 SW 10
07.12.2019 09:00:00 8,0 7,0 21 11 SSW 10
07.12.2019 08:00:00 8,0 7,0 24 13 SW 8
07.12.2019 07:00:00 8,0 6,0 18 10 SSW 10
07.12.2019 06:00:00 8,0 6,0 21 11 SSW 10

tt = temperature
td = dewpoint
ff = wind speed
dd = wind direction
vv = visibility

Next stations